Time;durP1;ratioP1;P1;durP2;ratioP2;P2;SDS_P1;SDS_P2;PMS_P1;PMS_P2;Temp;Humidity;BMP_temperature;BMP_pressure;BME280_temperature;BME280_humidity;BME280_pressure;Samples;Min_cycle;Max_cycle;Signal;HPM_P1;HPM_P2
2023/09/30 00:00:08;;;;;;;6.70;2.77;;;;;;;23.18;39.26;99197.44;4996847;28;20183;-87
2023/09/30 00:02:34;;;;;;;8.80;2.60;;;;;;;23.13;38.91;99205.09;4996790;28;20257;-88
2023/09/30 00:05:04;;;;;;;5.40;2.67;;;;;;;23.09;39.49;99199.22;5001627;28;20625;-88
2023/09/30 00:07:34;;;;;;;4.83;2.77;;;;;;;23.06;38.88;99204.06;5032038;28;20189;-88
2023/09/30 00:10:06;;;;;;;5.97;2.50;;;;;;;23.01;39.38;99201.00;5025951;28;20205;-87
2023/09/30 00:12:32;;;;;;;6.97;2.30;;;;;;;22.97;39.60;99197.81;5034199;28;20555;-88
2023/09/30 00:14:59;;;;;;;6.93;2.40;;;;;;;22.97;39.35;99199.63;5027781;28;20183;-88
2023/09/30 00:17:26;;;;;;;4.83;2.33;;;;;;;22.94;39.71;99199.94;5017033;28;20182;-88
2023/09/30 00:19:52;;;;;;;5.23;2.70;;;;;;;22.95;39.68;99201.63;5027549;28;20171;-88
2023/09/30 00:22:24;;;;;;;8.33;2.60;;;;;;;22.89;39.98;99194.25;4997013;28;20253;-87
2023/09/30 00:24:51;;;;;;;7.20;2.67;;;;;;;22.87;40.35;99189.06;5006755;28;20207;-88
2023/09/30 00:27:17;;;;;;;8.77;2.60;;;;;;;22.92;40.41;99191.25;5013729;28;20175;-88
2023/09/30 00:29:43;;;;;;;8.13;3.10;;;;;;;22.91;40.28;99200.25;4996589;28;20241;-88
2023/09/30 00:32:10;;;;;;;7.57;2.60;;;;;;;22.96;40.19;99195.28;5013651;28;20214;-88
2023/09/30 00:34:36;;;;;;;5.47;2.30;;;;;;;22.95;40.31;99189.13;5032606;28;20620;-87
2023/09/30 00:37:03;;;;;;;9.97;3.00;;;;;;;22.96;40.30;99192.59;5015927;28;20635;-89
2023/09/30 00:39:32;;;;;;;6.10;2.53;;;;;;;22.98;40.11;99188.78;5033562;28;20175;-88
2023/09/30 00:41:59;;;;;;;9.37;2.87;;;;;;;22.97;40.45;99184.44;5016093;28;20186;-88
2023/09/30 00:44:26;;;;;;;6.40;3.10;;;;;;;22.94;40.44;99183.91;5031530;28;20181;-88
2023/09/30 00:46:57;;;;;;;8.77;2.43;;;;;;;22.95;40.66;99190.94;5033448;28;20234;-88
2023/09/30 00:49:25;;;;;;;7.07;2.93;;;;;;;22.90;40.88;99179.88;5031617;28;20623;-88
2023/09/30 00:51:52;;;;;;;9.07;2.87;;;;;;;22.83;40.90;99179.66;5033112;28;20170;-88
2023/09/30 00:54:20;;;;;;;11.50;2.93;;;;;;;22.87;41.07;99174.84;5033615;28;20182;-87
2023/09/30 00:56:50;;;;;;;5.37;2.23;;;;;;;22.86;40.76;99176.69;5033047;28;20665;-87
2023/09/30 00:59:18;;;;;;;8.33;2.73;;;;;;;22.84;40.91;99169.81;5030713;28;20181;-87
2023/09/30 01:01:46;;;;;;;8.07;2.83;;;;;;;22.82;40.99;99174.47;5014178;28;20247;-88
2023/09/30 01:04:14;;;;;;;9.53;2.50;;;;;;;22.84;40.82;99169.81;5013247;28;20275;-87
2023/09/30 01:06:41;;;;;;;6.73;3.03;;;;;;;22.88;40.72;99173.84;5013718;28;20206;-88
2023/09/30 01:09:08;;;;;;;10.60;3.10;;;;;;;22.85;41.18;99176.84;5013110;28;20230;-88
2023/09/30 01:11:35;;;;;;;4.53;2.53;;;;;;;22.85;40.97;99174.19;5028238;28;20178;-88
2023/09/30 01:14:02;;;;;;;7.03;3.43;;;;;;;22.81;40.71;99172.78;5032263;28;20259;-87
2023/09/30 01:16:28;;;;;;;5.07;3.03;;;;;;;22.74;40.92;99172.59;5033114;28;20639;-88
2023/09/30 01:18:59;;;;;;;11.30;3.60;;;;;;;22.74;40.48;99179.78;5033082;28;20167;-87
2023/09/30 01:21:27;;;;;;;10.23;3.33;;;;;;;22.68;40.85;99177.72;5018853;28;20333;-87
2023/09/30 01:23:54;;;;;;;4.23;2.50;;;;;;;22.69;40.73;99176.72;4996027;28;20179;-88
2023/09/30 01:26:20;;;;;;;9.93;2.70;;;;;;;22.66;41.01;99172.53;4996837;28;20531;-88
2023/09/30 01:28:48;;;;;;;6.43;2.70;;;;;;;22.66;41.47;99172.53;5013236;28;20237;-88
2023/09/30 01:31:15;;;;;;;6.37;2.70;;;;;;;22.60;41.57;99170.44;5024723;28;20542;-87
2023/09/30 01:33:41;;;;;;;6.23;2.67;;;;;;;22.44;42.10;99171.16;5015559;28;20258;-88
2023/09/30 01:36:08;;;;;;;8.17;2.17;;;;;;;22.51;42.33;99166.88;5036985;28;20167;-87
2023/09/30 01:38:36;;;;;;;6.50;2.50;;;;;;;22.54;42.25;99166.56;5036577;28;20178;-87
2023/09/30 01:41:03;;;;;;;6.67;2.53;;;;;;;22.56;42.24;99169.91;5035072;28;20178;-87
2023/09/30 01:43:30;;;;;;;9.33;2.97;;;;;;;22.53;42.63;99170.25;5019886;28;20182;-87
2023/09/30 01:45:58;;;;;;;7.03;2.73;;;;;;;22.55;42.39;99162.91;5036717;28;20635;-88
2023/09/30 01:48:24;;;;;;;4.83;2.53;;;;;;;22.59;42.54;99169.59;5036964;28;20181;-88
2023/09/30 01:50:51;;;;;;;9.67;2.50;;;;;;;22.58;42.43;99167.94;5034810;28;20202;-88
2023/09/30 01:53:17;;;;;;;7.10;2.77;;;;;;;22.57;42.87;99166.25;5036474;28;20162;-87
2023/09/30 01:55:44;;;;;;;8.37;2.80;;;;;;;22.64;42.37;99169.19;5036826;28;20178;-88
2023/09/30 01:58:11;;;;;;;7.10;3.67;;;;;;;22.63;42.47;99156.81;5027617;28;20211;-88
2023/09/30 02:00:38;;;;;;;10.20;3.80;;;;;;;22.65;42.32;99162.84;5016697;28;20229;-87
2023/09/30 02:03:04;;;;;;;6.57;2.70;;;;;;;22.57;42.56;99166.25;5016413;28;20234;-88
2023/09/30 02:05:31;;;;;;;8.40;3.60;;;;;;;22.56;42.51;99161.09;4999344;28;20209;-88
2023/09/30 02:07:57;;;;;;;7.33;3.30;;;;;;;22.56;42.46;99159.22;5013690;28;20274;-88
2023/09/30 02:10:24;;;;;;;7.73;3.30;;;;;;;22.60;42.61;99159.75;5035851;28;20198;-89
2023/09/30 02:12:50;;;;;;;8.70;3.73;;;;;;;22.57;42.41;99158.25;5050091;28;20269;-88
2023/09/30 02:15:18;;;;;;;10.47;3.37;;;;;;;22.56;42.61;99156.56;5055015;28;20174;-88
2023/09/30 02:17:48;;;;;;;8.80;3.57;;;;;;;22.55;42.63;99149.56;5035971;28;20198;-89
2023/09/30 02:20:18;;;;;;;8.13;2.93;;;;;;;22.57;42.50;99150.22;5018476;28;20182;-89
2023/09/30 02:22:48;;;;;;;7.67;3.07;;;;;;;22.49;42.82;99152.84;5018426;28;20182;-88
2023/09/30 02:25:15;;;;;;;6.33;3.00;;;;;;;22.49;42.43;99146.66;5035778;28;20236;-88
2023/09/30 02:27:42;;;;;;;9.00;2.93;;;;;;;22.50;42.48;99151.84;5042796;28;20218;-89
2023/09/30 02:30:11;;;;;;;13.03;3.47;;;;;;;22.50;42.84;99153.69;5002008;28;20234;-88
2023/09/30 02:32:40;;;;;;;7.67;3.30;;;;;;;22.53;42.30;99156.88;5023987;28;20175;-87
2023/09/30 02:35:08;;;;;;;10.60;2.83;;;;;;;22.59;42.14;99156.25;5015820;28;20198;-88
2023/09/30 02:37:35;;;;;;;10.40;2.90;;;;;;;22.68;41.94;99154.50;4999399;28;20191;-88
2023/09/30 02:40:09;;;;;;;5.03;2.70;;;;;;;22.69;42.21;99152.69;5015993;28;20169;-88
2023/09/30 02:42:39;;;;;;;9.10;2.80;;;;;;;22.58;42.20;99146.56;5017866;28;20320;-88
2023/09/30 02:45:10;;;;;;;5.70;3.07;;;;;;;22.71;42.16;99150.69;5033690;28;20204;-88
2023/09/30 02:47:39;;;;;;;9.00;2.57;;;;;;;22.63;41.85;99155.00;5024992;28;20181;-88
2023/09/30 02:50:12;;;;;;;6.97;2.70;;;;;;;22.64;41.60;99151.31;5017764;28;20191;-88
2023/09/30 02:52:44;;;;;;;6.37;2.77;;;;;;;22.62;41.80;99150.63;5021116;28;20613;-88
2023/09/30 02:55:11;;;;;;;5.60;2.70;;;;;;;22.62;41.95;99147.94;4997859;28;20617;-88
2023/09/30 02:57:39;;;;;;;6.60;2.53;;;;;;;22.72;41.60;99152.38;5023515;28;20624;-87
2023/09/30 03:00:32;;;;;;;4.67;2.77;;;;;;;22.64;41.86;99148.63;5017885;28;20179;-88
2023/09/30 03:03:04;;;;;;;7.23;2.50;;;;;;;22.59;41.52;99148.22;5025712;28;20227;-88
2023/09/30 03:05:33;;;;;;;6.50;2.97;;;;;;;22.57;41.69;99149.38;5015714;28;20234;-88
2023/09/30 03:08:00;;;;;;;8.37;2.57;;;;;;;22.56;42.03;99147.72;5015227;28;20198;-87
2023/09/30 03:10:27;;;;;;;5.77;2.83;;;;;;;22.60;41.62;99149.91;5018148;28;20276;-88
2023/09/30 03:12:53;;;;;;;10.20;2.90;;;;;;;22.66;41.41;99140.47;5032931;28;20185;-88
2023/09/30 03:15:22;;;;;;;13.57;2.60;;;;;;;22.63;41.71;99149.66;5024546;28;20175;-88
2023/09/30 03:17:49;;;;;;;5.47;2.30;;;;;;;22.71;41.38;99145.34;5015294;28;20182;-87
2023/09/30 03:20:19;;;;;;;8.97;2.60;;;;;;;22.68;41.37;99156.34;5021489;28;20262;-87
2023/09/30 03:22:46;;;;;;;8.50;2.53;;;;;;;22.70;41.32;99147.16;5028513;28;20182;-87
2023/09/30 03:25:17;;;;;;;5.07;2.50;;;;;;;22.71;41.24;99153.34;5034347;28;20170;-88
2023/09/30 03:27:43;;;;;;;7.60;2.53;;;;;;;22.64;41.23;99153.97;5017574;28;20262;-88
2023/09/30 03:30:11;;;;;;;11.97;2.50;;;;;;;22.69;41.14;99155.34;5014629;28;20597;-88
2023/09/30 03:32:38;;;;;;;8.93;2.83;;;;;;;22.71;41.38;99158.69;5018906;28;20608;-89
2023/09/30 03:35:17;;;;;;;5.07;2.63;;;;;;;22.76;40.88;99151.06;5030581;28;20174;-88
2023/09/30 03:37:44;;;;;;;8.50;3.40;;;;;;;22.70;40.95;99157.00;5034581;28;20188;-88
2023/09/30 03:40:18;;;;;;;6.70;2.77;;;;;;;22.70;41.22;99157.84;5034071;28;20603;-88
2023/09/30 03:42:51;;;;;;;7.83;2.67;;;;;;;22.66;40.94;99158.34;5020636;28;20176;-88
2023/09/30 03:45:18;;;;;;;9.57;2.53;;;;;;;22.67;41.18;99149.34;5017236;28;20171;-88
2023/09/30 03:47:45;;;;;;;7.33;2.70;;;;;;;22.65;41.05;99157.50;5023944;28;20171;-88
2023/09/30 03:50:15;;;;;;;4.53;2.30;;;;;;;22.67;41.41;99154.69;5014347;28;20692;-88
2023/09/30 03:52:44;;;;;;;7.80;2.27;;;;;;;22.62;41.29;99155.97;5031832;28;20624;-88
2023/09/30 03:55:12;;;;;;;6.47;2.60;;;;;;;22.62;41.42;99164.00;5030524;28;20547;-87
2023/09/30 03:57:38;;;;;;;5.93;2.20;;;;;;;22.65;41.18;99154.81;5013917;28;20177;-87
2023/09/30 04:00:06;;;;;;;5.03;2.10;;;;;;;22.64;41.12;99164.66;5015338;28;20183;-88
2023/09/30 04:02:35;;;;;;;12.10;2.83;;;;;;;22.64;41.05;99166.53;5012524;28;20636;-88
2023/09/30 04:05:05;;;;;;;7.20;2.63;;;;;;;22.63;41.05;99160.34;5015278;28;20193;-88
2023/09/30 04:07:32;;;;;;;5.97;2.50;;;;;;;22.63;41.45;99162.16;5014080;28;20220;-87
2023/09/30 04:10:01;;;;;;;7.07;2.90;;;;;;;22.60;41.14;99163.28;5026627;28;20205;-88
2023/09/30 04:12:28;;;;;;;4.77;2.60;;;;;;;22.59;41.02;99161.59;5033767;28;20185;-88
2023/09/30 04:14:55;;;;;;;6.10;3.00;;;;;;;22.59;41.15;99161.59;5016813;28;20197;-88
2023/09/30 04:17:23;;;;;;;4.97;2.20;;;;;;;22.55;41.19;99165.59;5004690;28;20528;-88
2023/09/30 04:19:54;;;;;;;17.83;2.97;;;;;;;22.53;41.26;99164.06;5033242;28;20178;-87
2023/09/30 04:22:25;;;;;;;8.27;2.53;;;;;;;22.48;40.99;99167.16;5017881;28;20179;-88
2023/09/30 04:24:52;;;;;;;5.47;2.83;;;;;;;22.46;41.46;99169.16;4996483;28;20175;-88
2023/09/30 04:27:19;;;;;;;10.03;2.67;;;;;;;22.50;41.08;99170.56;5023457;28;20193;-88
2023/09/30 04:29:46;;;;;;;11.93;2.80;;;;;;;22.51;41.15;99169.53;5025543;28;20199;-87
2023/09/30 04:32:13;;;;;;;10.50;2.57;;;;;;;22.51;41.00;99164.19;4996332;28;20524;-88
2023/09/30 04:34:40;;;;;;;6.60;2.43;;;;;;;22.51;41.39;99172.22;5026677;28;20229;-88
2023/09/30 04:37:09;;;;;;;5.63;2.67;;;;;;;22.51;41.25;99172.22;5031725;28;20181;-87
2023/09/30 04:39:35;;;;;;;7.77;2.60;;;;;;;22.50;41.02;99181.25;5027203;28;20171;-88
2023/09/30 04:42:03;;;;;;;11.60;2.80;;;;;;;22.47;41.39;99175.34;5013524;28;20175;-88
2023/09/30 04:44:31;;;;;;;6.90;2.43;;;;;;;22.49;41.33;99176.88;4996094;28;20278;-88
2023/09/30 04:46:57;;;;;;;6.27;2.40;;;;;;;22.54;41.38;99179.91;5021129;28;20269;-87
2023/09/30 04:49:25;;;;;;;4.87;2.50;;;;;;;22.50;41.42;99181.25;5017745;28;20198;-88
2023/09/30 04:51:51;;;;;;;6.37;2.60;;;;;;;22.43;41.44;99179.34;5013571;28;20175;-88
2023/09/30 04:54:18;;;;;;;9.30;2.30;;;;;;;22.47;41.57;99180.69;4996335;28;20541;-88
2023/09/30 04:56:46;;;;;;;10.47;3.37;;;;;;;22.43;41.83;99179.34;5022026;28;20181;-88
2023/09/30 04:59:14;;;;;;;5.10;2.57;;;;;;;22.53;41.91;99183.59;5030483;28;20253;-88
2023/09/30 05:01:40;;;;;;;5.93;2.37;;;;;;;22.59;41.52;99176.78;5014252;28;20179;-88
2023/09/30 05:04:07;;;;;;;5.83;2.30;;;;;;;22.63;41.52;99179.03;5021095;28;20253;-88
2023/09/30 05:06:33;;;;;;;4.90;2.20;;;;;;;22.60;42.08;99187.31;5013814;28;20186;-87
2023/09/30 05:09:00;;;;;;;11.17;2.40;;;;;;;22.71;41.17;99185.44;5031372;28;20182;-88
2023/09/30 05:11:26;;;;;;;10.67;3.17;;;;;;;22.64;41.66;99194.06;5012728;28;20542;-88
2023/09/30 05:13:53;;;;;;;5.53;2.90;;;;;;;22.80;41.42;99187.19;5032742;28;20186;-88
2023/09/30 05:16:20;;;;;;;5.93;2.80;;;;;;;22.85;41.42;99185.69;4999917;28;20175;-88
2023/09/30 05:18:48;;;;;;;4.37;2.70;;;;;;;22.93;41.44;99187.59;5025070;28;20175;-88
2023/09/30 05:21:15;;;;;;;5.50;2.30;;;;;;;23.07;41.56;99195.88;5013121;28;20175;-87
2023/09/30 05:23:42;;;;;;;6.07;2.30;;;;;;;23.24;40.96;99189.59;4996073;28;20219;-88
2023/09/30 05:26:08;;;;;;;5.30;2.57;;;;;;;23.32;40.57;99188.81;5033316;28;20252;-87
2023/09/30 05:28:35;;;;;;;11.87;3.10;;;;;;;23.51;40.18;99191.25;5030573;28;20178;-88
2023/09/30 05:31:02;;;;;;;10.30;2.70;;;;;;;23.78;40.14;99191.03;5013114;28;20195;-88
2023/09/30 05:33:29;;;;;;;6.10;2.80;;;;;;;24.02;39.77;99184.06;5017660;28;20674;-88
2023/09/30 05:35:56;;;;;;;8.37;2.97;;;;;;;24.26;39.41;99186.81;5022375;28;20182;-88
2023/09/30 05:38:23;;;;;;;11.73;2.93;;;;;;;24.45;38.77;99191.84;5032511;28;20174;-88
2023/09/30 05:40:49;;;;;;;9.20;2.30;;;;;;;24.52;38.55;99200.91;5015595;28;20218;-88
2023/09/30 05:43:16;;;;;;;8.77;2.83;;;;;;;24.69;38.22;99202.56;5032030;28;20186;-88
2023/09/30 05:45:54;;;;;;;4.03;2.17;;;;;;;24.85;37.79;99202.59;5016403;28;20183;-87
2023/09/30 05:48:21;;;;;;;4.50;2.20;;;;;;;25.15;37.60;99197.50;5024295;28;20202;-88
2023/09/30 05:50:48;;;;;;;5.77;2.27;;;;;;;25.43;37.08;99206.81;5013584;28;20669;-88
2023/09/30 05:53:15;;;;;;;5.97;2.67;;;;;;;25.58;36.70;99200.56;5018966;28;20198;-88
2023/09/30 05:55:43;;;;;;;6.43;2.30;;;;;;;25.89;36.68;99192.53;5010629;28;20187;-89
2023/09/30 05:58:10;;;;;;;11.03;2.87;;;;;;;26.35;35.73;99192.63;5007624;28;20190;-88
2023/09/30 06:00:37;;;;;;;6.37;2.60;;;;;;;26.54;34.53;99197.50;5030538;28;20566;-88
2023/09/30 06:03:07;;;;;;;5.83;2.70;;;;;;;26.68;34.67;99202.06;5020743;28;20240;-87
2023/09/30 06:05:38;;;;;;;5.40;2.63;;;;;;;27.06;33.95;99198.41;5020300;28;20219;-88
2023/09/30 06:08:08;;;;;;;6.00;2.60;;;;;;;27.84;33.51;99198.69;5011238;28;20253;-88
2023/09/30 06:10:37;;;;;;;4.67;2.40;;;;;;;28.78;31.67;99200.31;5028725;28;20656;-88
2023/09/30 06:13:04;;;;;;;9.07;2.40;;;;;;;29.55;30.29;99198.38;5012623;28;20198;-87
2023/09/30 06:15:33;;;;;;;8.37;2.43;;;;;;;30.11;29.03;99195.53;5012645;28;20190;-88
2023/09/30 06:18:00;;;;;;;8.60;2.87;;;;;;;30.57;28.87;99193.75;5020773;28;20582;-87
2023/09/30 06:20:26;;;;;;;8.90;2.70;;;;;;;30.80;28.40;99196.88;4999800;28;20167;-87
2023/09/30 06:22:53;;;;;;;5.13;2.60;;;;;;;31.37;27.80;99198.91;5015931;28;20212;-88
2023/09/30 06:25:24;;;;;;;3.83;2.13;;;;;;;32.01;27.17;99196.25;5016252;28;20207;-87
2023/09/30 06:27:51;;;;;;;5.20;2.42;;;;;;;32.03;26.89;99188.72;4999736;28;20274;-88
2023/09/30 06:30:21;;;;;;;6.68;2.75;;;;;;;32.32;26.08;99195.44;4998683;28;20295;-88
2023/09/30 06:32:48;;;;;;;16.42;2.70;;;;;;;32.37;26.10;99195.59;5031988;28;20261;-89
2023/09/30 06:35:14;;;;;;;9.52;2.88;;;;;;;32.67;26.57;99191.25;4998607;28;20213;-88
2023/09/30 06:37:41;;;;;;;7.55;2.25;;;;;;;32.77;26.25;99196.19;5015818;28;20190;-88
2023/09/30 06:40:11;;;;;;;6.78;3.20;;;;;;;32.19;26.09;99199.06;5016169;28;20194;-88
2023/09/30 06:42:39;;;;;;;10.63;3.15;;;;;;;32.06;26.62;99196.44;5000707;28;20218;-88
2023/09/30 06:45:07;;;;;;;6.07;2.75;;;;;;;31.95;26.05;99191.66;5035230;28;20328;-89
2023/09/30 06:47:36;;;;;;;13.80;3.03;;;;;;;31.73;25.85;99200.31;5035360;28;20331;-90
2023/09/30 06:50:08;;;;;;;6.60;2.42;;;;;;;31.50;25.80;99204.31;5006138;28;20195;-90
2023/09/30 06:52:40;;;;;;;6.97;2.95;;;;;;;31.36;26.89;99199.13;5017690;28;20181;-89
2023/09/30 06:55:08;;;;;;;5.28;2.72;;;;;;;31.38;26.74;99197.88;4998333;28;20546;-90
2023/09/30 06:57:37;;;;;;;13.57;3.28;;;;;;;31.55;27.33;99195.59;4982193;28;20179;-91
2023/09/30 07:00:14;;;;;;;10.32;3.20;;;;;;;31.63;25.59;99198.03;5015843;28;20321;-91
2023/09/30 07:02:41;;;;;;;8.88;3.35;;;;;;;31.45;26.17;99200.56;4998191;28;20178;-90
2023/09/30 07:05:12;;;;;;;8.30;3.47;;;;;;;31.55;26.33;99204.53;5015298;28;20242;-91
2023/09/30 07:07:39;;;;;;;8.60;3.78;;;;;;;31.38;26.25;99211.44;5021181;28;20179;-90
2023/09/30 07:10:11;;;;;;;6.43;3.40;;;;;;;31.17;25.87;99203.53;5023082;28;20202;-89
2023/09/30 07:12:43;;;;;;;8.30;3.30;;;;;;;30.96;26.60;99210.03;5016281;28;20190;-92
2023/09/30 07:15:10;;;;;;;9.43;3.22;;;;;;;30.75;26.55;99199.38;4998014;28;20171;-89
2023/09/30 07:17:37;;;;;;;8.52;2.83;;;;;;;30.69;27.57;99210.19;5033974;28;20182;-89
2023/09/30 07:20:05;;;;;;;9.43;4.13;;;;;;;30.62;27.27;99218.31;5023325;28;20195;-89
2023/09/30 07:22:32;;;;;;;5.78;3.35;;;;;;;30.26;27.55;99215.09;5034235;28;20193;-88
2023/09/30 07:24:59;;;;;;;12.93;3.50;;;;;;;30.16;27.24;99207.38;5020140;28;20179;-89
2023/09/30 07:27:26;;;;;;;7.13;3.47;;;;;;;30.28;27.53;99207.63;5031337;28;20244;-90
2023/09/30 07:29:53;;;;;;;6.43;3.20;;;;;;;30.39;27.83;99209.75;5033030;28;20198;-89
2023/09/30 07:32:23;;;;;;;15.48;4.07;;;;;;;30.38;27.88;99214.31;5001210;28;20218;-89
2023/09/30 07:34:50;;;;;;;6.00;2.95;;;;;;;30.29;27.01;99215.50;5001607;28;20183;-89
2023/09/30 07:37:20;;;;;;;8.23;3.38;;;;;;;30.16;26.98;99222.78;5029418;28;20261;-91
2023/09/30 07:39:47;;;;;;;7.22;3.80;;;;;;;30.24;27.51;99222.59;5016644;28;20190;-89
2023/09/30 07:42:19;;;;;;;9.48;3.45;;;;;;;30.00;26.31;99231.25;5032587;28;20182;-92
2023/09/30 07:44:46;;;;;;;7.25;3.30;;;;;;;29.73;26.87;99233.81;5034172;28;20167;-90
2023/09/30 07:47:13;;;;;;;10.75;3.67;;;;;;;29.81;27.56;99228.25;5021190;28;20193;-89
2023/09/30 07:49:39;;;;;;;10.55;5.32;;;;;;;29.97;28.11;99226.25;5015655;28;20209;-89
2023/09/30 07:52:06;;;;;;;11.52;5.30;;;;;;;30.03;27.41;99230.84;5025691;28;20632;-90
2023/09/30 07:54:32;;;;;;;11.27;5.07;;;;;;;30.15;27.93;99223.81;5014525;28;20194;-89
2023/09/30 07:56:59;;;;;;;12.77;5.38;;;;;;;30.30;26.66;99216.34;5025500;28;20606;-90
2023/09/30 07:59:27;;;;;;;6.60;3.50;;;;;;;30.32;27.35;99215.09;5033960;28;20682;-90
2023/09/30 08:01:54;;;;;;;9.20;3.72;;;;;;;30.29;27.68;99210.09;5015286;28;20210;-90
2023/09/30 08:04:20;;;;;;;6.43;3.50;;;;;;;30.28;26.38;99211.16;5033496;28;20226;-90
2023/09/30 08:06:47;;;;;;;4.43;2.95;;;;;;;30.25;26.57;99211.56;5016751;28;20608;-90
2023/09/30 08:09:14;;;;;;;5.95;3.65;;;;;;;30.31;26.66;99213.47;5014353;28;20285;-91
2023/09/30 08:11:41;;;;;;;10.30;3.20;;;;;;;30.46;27.75;99216.00;5022780;28;20273;-89
2023/09/30 08:14:11;;;;;;;10.25;3.45;;;;;;;30.65;27.23;99215.19;5014440;28;20175;-91
2023/09/30 08:16:37;;;;;;;7.25;3.33;;;;;;;30.39;26.81;99212.47;5022913;28;20269;-90
2023/09/30 08:19:05;;;;;;;8.15;3.40;;;;;;;30.49;27.20;99209.34;5046961;28;20184;-88
2023/09/30 08:21:31;;;;;;;8.82;3.58;;;;;;;30.46;26.65;99210.59;5032515;28;20677;-88
2023/09/30 08:23:59;;;;;;;11.38;4.10;;;;;;;30.33;26.86;99208.66;5020558;28;20262;-89
2023/09/30 08:26:29;;;;;;;8.02;3.00;;;;;;;30.28;26.53;99204.91;5033702;28;20232;-93
2023/09/30 08:29:00;;;;;;;8.73;3.78;;;;;;;30.48;25.65;99205.78;5009408;28;20566;-89
2023/09/30 08:31:28;;;;;;;6.90;3.45;;;;;;;30.71;25.33;99203.56;5014459;28;20175;-91
2023/09/30 08:33:54;;;;;;;6.15;3.95;;;;;;;30.81;25.83;99198.56;5013912;28;20190;-89
2023/09/30 08:36:21;;;;;;;8.18;3.53;;;;;;;30.74;26.06;99200.41;5014413;28;20175;-90
2023/09/30 08:38:47;;;;;;;6.95;3.15;;;;;;;30.69;25.61;99202.06;5013890;28;20637;-90
2023/09/30 08:41:35;;;;;;;14.25;3.05;;;;;;;30.98;24.68;99205.22;5021991;28;20171;-90
2023/09/30 08:44:03;;;;;;;13.93;3.63;;;;;;;30.95;24.52;99199.38;5033925;28;20581;-90
2023/09/30 08:46:34;;;;;;;7.00;3.03;;;;;;;31.08;24.22;99198.56;5033466;28;20184;-89
2023/09/30 08:49:03;;;;;;;8.43;3.28;;;;;;;31.11;24.74;99198.13;5024229;28;20186;-91
2023/09/30 08:51:29;;;;;;;5.32;3.20;;;;;;;31.08;24.63;99198.56;5007813;28;20290;-90
2023/09/30 08:53:58;;;;;;;6.22;2.97;;;;;;;30.88;24.90;99201.25;5020723;28;20175;-90
2023/09/30 08:56:34;;;;;;;4.60;3.15;;;;;;;30.83;25.05;99191.06;5020280;28;20166;-90
2023/09/30 08:59:02;;;;;;;4.57;2.30;;;;;;;30.84;25.72;99181.06;5053303;28;20178;-89
2023/09/30 09:01:33;;;;;;;7.30;2.95;;;;;;;30.77;24.96;99185.63;5030720;28;20637;-90
2023/09/30 09:04:03;;;;;;;7.10;3.00;;;;;;;31.02;25.26;99179.41;5044080;28;20291;-90
2023/09/30 09:06:34;;;;;;;9.02;2.70;;;;;;;31.16;25.72;99173.97;5053326;28;20228;-90
2023/09/30 09:09:22;;;;;;;6.05;1.88;;;;;;;31.20;24.30;99191.47;5052877;28;20189;-88
2023/09/30 09:11:51;;;;;;;6.78;2.67;;;;;;;31.26;23.68;99194.16;5046642;28;20213;-91
2023/09/30 09:14:51;;;;;;;8.57;2.88;;;;;;;31.12;23.34;99186.25;5053072;28;20161;-90
2023/09/30 09:17:17;;;;;;;5.50;2.20;;;;;;;31.28;23.97;99183.94;5035940;28;20683;-91
2023/09/30 09:20:25;;;;;;;3.90;1.98;;;;;;;31.55;23.96;99180.13;5053024;28;20172;-92
2023/09/30 09:23:00;;;;;;;3.30;1.77;;;;;;;31.51;23.38;99170.78;4968463;28;20262;-90
2023/09/30 09:25:28;;;;;;;5.70;2.08;;;;;;;31.24;23.50;99173.72;5053181;28;20515;-90
2023/09/30 09:27:56;;;;;;;9.57;2.30;;;;;;;31.20;23.80;99189.59;5053131;28;20185;-89
2023/09/30 09:30:24;;;;;;;5.43;2.00;;;;;;;31.23;23.63;99186.47;5052700;28;20550;-90
2023/09/30 09:33:08;;;;;;;7.63;2.30;;;;;;;31.11;23.31;99174.59;5053250;28;20235;-96
2023/09/30 09:35:35;;;;;;;13.75;3.05;;;;;;;31.06;23.13;99178.97;5053225;28;20238;-89
2023/09/30 09:38:08;;;;;;;6.13;2.42;;;;;;;31.05;23.77;99171.91;5052843;28;20189;-92
2023/09/30 09:40:41;;;;;;;5.68;1.45;;;;;;;31.07;23.49;99178.78;5053103;28;20174;-89
2023/09/30 09:43:09;;;;;;;4.00;1.88;;;;;;;31.38;23.83;99168.06;5052733;28;20212;-90
2023/09/30 09:45:43;;;;;;;5.35;1.95;;;;;;;31.63;22.72;99162.78;5043681;28;20668;-90
2023/09/30 09:48:35;;;;;;;5.63;1.90;;;;;;;31.81;22.69;99162.13;5017239;28;20166;-93
2023/09/30 09:51:09;;;;;;;3.65;2.05;;;;;;;31.81;22.76;99168.38;5033334;28;20208;-93
2023/09/30 09:53:40;;;;;;;4.38;2.25;;;;;;;31.63;22.93;99162.00;5015422;28;20197;-90
2023/09/30 09:56:12;;;;;;;3.08;1.83;;;;;;;31.85;23.26;99156.03;5038212;28;20268;-91
2023/09/30 09:58:41;;;;;;;7.85;2.00;;;;;;;32.16;22.69;99152.53;5037807;28;20601;-91
2023/09/30 10:01:12;;;;;;;5.68;2.03;;;;;;;32.21;22.54;99158.13;5054336;28;20170;-92
2023/09/30 10:03:50;;;;;;;4.93;1.92;;;;;;;32.19;22.30;99162.97;5054441;28;20233;-92
2023/09/30 10:06:15;;;;;;;3.28;1.83;;;;;;;32.06;22.20;99160.31;5036720;28;20197;-90
2023/09/30 10:08:44;;;;;;;7.32;2.40;;;;;;;32.36;23.69;99160.56;5054331;28;20205;-90
2023/09/30 10:11:20;;;;;;;4.95;2.33;;;;;;;32.59;22.11;99155.41;5054392;28;20289;-92
2023/09/30 10:13:56;;;;;;;7.65;2.47;;;;;;;32.70;21.78;99154.69;5055169;28;20220;-91
2023/09/30 10:16:37;;;;;;;5.68;2.05;;;;;;;32.60;21.55;99152.44;5038808;28;20177;-95
2023/09/30 10:19:15;;;;;;;5.03;2.33;;;;;;;32.66;21.81;99156.16;5038797;28;20605;-91
2023/09/30 10:22:22;;;;;;;5.13;2.20;;;;;;;32.59;21.34;99156.25;5056004;28;20663;-91
2023/09/30 10:24:49;;;;;;;7.20;2.03;;;;;;;32.21;22.61;99152.72;5056684;28;20174;-90
2023/09/30 10:27:32;;;;;;;6.60;3.05;;;;;;;32.27;23.23;99156.44;5056028;28;20178;-90
2023/09/30 10:30:13;;;;;;;5.13;2.75;;;;;;;32.47;22.70;99144.38;5056421;28;20217;-91
2023/09/30 10:32:50;;;;;;;4.32;2.10;;;;;;;32.44;23.24;99138.59;5056732;28;20169;-91
2023/09/30 10:35:39;;;;;;;6.90;1.98;;;;;;;32.43;22.43;99145.06;5056113;28;20174;-90
2023/09/30 10:38:25;;;;;;;4.65;2.40;;;;;;;32.65;22.25;99132.81;5042543;28;20189;-91
2023/09/30 10:40:54;;;;;;;8.32;1.80;;;;;;;32.39;23.25;99138.41;5021400;28;20677;-92
2023/09/30 10:43:32;;;;;;;5.32;2.58;;;;;;;32.45;22.49;99142.94;5054820;28;20190;-90
2023/09/30 10:45:59;;;;;;;8.70;2.92;;;;;;;32.68;22.50;99148.63;5038376;28;20275;-90
2023/09/30 10:48:24;;;;;;;7.45;2.28;;;;;;;32.71;22.32;99142.75;5055685;28;20188;-91
2023/09/30 10:50:52;;;;;;;9.25;2.22;;;;;;;32.82;23.15;99136.59;5037955;28;20205;-91
2023/09/30 10:53:18;;;;;;;4.80;2.05;;;;;;;32.61;22.35;99137.84;5055751;28;20537;-90
2023/09/30 10:55:54;;;;;;;7.25;2.10;;;;;;;32.40;22.26;99134.63;5037898;28;20182;-91
2023/09/30 10:58:19;;;;;;;5.28;2.70;;;;;;;32.15;22.94;99130.00;5055979;28;20169;-90
2023/09/30 11:00:57;;;;;;;4.47;2.50;;;;;;;31.79;23.56;99131.69;5037771;28;20641;-91
2023/09/30 11:03:27;;;;;;;5.25;2.40;;;;;;;31.68;23.48;99125.06;5038761;28;20197;-91
2023/09/30 11:05:53;;;;;;;7.85;2.78;;;;;;;31.94;23.18;99119.50;5054784;28;20176;-92
2023/09/30 11:08:24;;;;;;;6.85;2.40;;;;;;;32.13;23.36;99123.97;5054273;28;20261;-92
2023/09/30 11:10:51;;;;;;;4.60;2.38;;;;;;;32.33;23.85;99114.88;5055356;28;20193;-90
2023/09/30 11:13:20;;;;;;;5.35;2.42;;;;;;;32.45;22.48;99116.66;5055274;28;20247;-90
2023/09/30 11:15:46;;;;;;;6.32;2.75;;;;;;;32.63;22.13;99119.44;5037386;28;20267;-91
2023/09/30 11:18:19;;;;;;;5.00;2.20;;;;;;;32.78;23.37;99119.13;5054992;28;20189;-91
2023/09/30 11:20:45;;;;;;;3.70;2.10;;;;;;;32.89;22.24;99104.78;5055226;28;20261;-91
2023/09/30 11:23:12;;;;;;;6.10;2.15;;;;;;;32.67;21.83;99109.81;5055514;28;20174;-91
2023/09/30 11:25:39;;;;;;;4.97;2.20;;;;;;;32.66;22.67;99108.16;5037261;28;20184;-90
2023/09/30 11:28:18;;;;;;;4.85;2.25;;;;;;;32.63;22.51;99110.47;5055103;28;20542;-91
2023/09/30 11:31:02;;;;;;;4.20;2.28;;;;;;;32.69;21.94;99096.00;5037218;28;20568;-90
2023/09/30 11:33:28;;;;;;;7.57;2.17;;;;;;;32.15;22.69;99108.31;5054750;28;20628;-89
2023/09/30 11:35:58;;;;;;;4.85;2.30;;;;;;;32.03;22.69;99096.50;5054472;28;20294;-89
2023/09/30 11:38:30;;;;;;;4.20;2.40;;;;;;;32.22;22.24;99084.69;5054742;28;20178;-91
2023/09/30 11:41:11;;;;;;;3.55;2.03;;;;;;;32.01;21.66;99101.31;5037301;28;20591;-91